sensor_id;sensor_type;location;lat;lon;timestamp;temperature;humidity
62573;DHT22;48626;51.678;5.806;2023-05-14T00:00:50;16.90;99.90
62573;DHT22;48626;51.678;5.806;2023-05-14T00:03:16;16.90;99.90
62573;DHT22;48626;51.678;5.806;2023-05-14T00:05:41;16.80;99.90
62573;DHT22;48626;51.678;5.806;2023-05-14T00:08:07;16.80;99.90
62573;DHT22;48626;51.678;5.806;2023-05-14T00:10:33;16.70;99.90
62573;DHT22;48626;51.678;5.806;2023-05-14T00:12:58;16.70;99.90
62573;DHT22;48626;51.678;5.806;2023-05-14T00:15:24;16.60;99.90
62573;DHT22;48626;51.678;5.806;2023-05-14T00:17:50;16.60;99.90
62573;DHT22;48626;51.678;5.806;2023-05-14T00:20:15;16.50;99.90
62573;DHT22;48626;51.678;5.806;2023-05-14T00:22:41;16.50;99.90
62573;DHT22;48626;51.678;5.806;2023-05-14T00:25:07;16.50;99.90
62573;DHT22;48626;51.678;5.806;2023-05-14T00:27:33;16.50;99.90
62573;DHT22;48626;51.678;5.806;2023-05-14T00:29:59;16.40;99.90
62573;DHT22;48626;51.678;5.806;2023-05-14T00:32:25;16.30;99.90
62573;DHT22;48626;51.678;5.806;2023-05-14T00:34:50;16.30;99.90
62573;DHT22;48626;51.678;5.806;2023-05-14T00:37:16;16.30;99.90
62573;DHT22;48626;51.678;5.806;2023-05-14T00:39:42;16.20;99.90
62573;DHT22;48626;51.678;5.806;2023-05-14T00:42:07;16.20;99.90
62573;DHT22;48626;51.678;5.806;2023-05-14T00:44:34;16.20;99.90
62573;DHT22;48626;51.678;5.806;2023-05-14T00:46:59;16.20;99.90
62573;DHT22;48626;51.678;5.806;2023-05-14T00:49:25;16.10;99.90
62573;DHT22;48626;51.678;5.806;2023-05-14T00:51:52;16.10;99.90
62573;DHT22;48626;51.678;5.806;2023-05-14T00:54:19;16.10;99.90
62573;DHT22;48626;51.678;5.806;2023-05-14T00:56:45;16.10;99.90
62573;DHT22;48626;51.678;5.806;2023-05-14T00:59:12;16.00;99.90
62573;DHT22;48626;51.678;5.806;2023-05-14T01:01:38;16.00;99.90
62573;DHT22;48626;51.678;5.806;2023-05-14T01:04:05;15.90;99.90
62573;DHT22;48626;51.678;5.806;2023-05-14T01:09:24;15.80;99.90
62573;DHT22;48626;51.678;5.806;2023-05-14T01:12:22;15.80;99.90
62573;DHT22;48626;51.678;5.806;2023-05-14T01:15:01;15.70;99.90
62573;DHT22;48626;51.678;5.806;2023-05-14T01:17:32;15.60;99.90
62573;DHT22;48626;51.678;5.806;2023-05-14T01:19:58;15.60;99.90
62573;DHT22;48626;51.678;5.806;2023-05-14T01:22:25;15.60;99.90
62573;DHT22;48626;51.678;5.806;2023-05-14T01:24:50;15.50;99.90
62573;DHT22;48626;51.678;5.806;2023-05-14T01:27:34;15.50;99.90
62573;DHT22;48626;51.678;5.806;2023-05-14T01:32:36;15.50;99.90
62573;DHT22;48626;51.678;5.806;2023-05-14T01:35:04;15.50;99.90
62573;DHT22;48626;51.678;5.806;2023-05-14T01:37:31;15.50;99.90
62573;DHT22;48626;51.678;5.806;2023-05-14T01:39:58;15.40;99.90
62573;DHT22;48626;51.678;5.806;2023-05-14T01:42:25;15.40;99.90
62573;DHT22;48626;51.678;5.806;2023-05-14T01:44:51;15.40;99.90
62573;DHT22;48626;51.678;5.806;2023-05-14T01:47:17;15.40;99.90
62573;DHT22;48626;51.678;5.806;2023-05-14T01:49:42;15.40;99.90
62573;DHT22;48626;51.678;5.806;2023-05-14T01:52:08;15.30;99.90
62573;DHT22;48626;51.678;5.806;2023-05-14T01:54:34;15.30;99.90
62573;DHT22;48626;51.678;5.806;2023-05-14T01:57:00;15.30;99.90
62573;DHT22;48626;51.678;5.806;2023-05-14T01:59:25;15.30;99.90
62573;DHT22;48626;51.678;5.806;2023-05-14T02:01:51;15.40;99.90
62573;DHT22;48626;51.678;5.806;2023-05-14T02:04:16;15.40;99.90
62573;DHT22;48626;51.678;5.806;2023-05-14T02:06:42;15.40;99.90
62573;DHT22;48626;51.678;5.806;2023-05-14T02:09:08;15.40;99.90
62573;DHT22;48626;51.678;5.806;2023-05-14T02:11:33;15.40;99.90
62573;DHT22;48626;51.678;5.806;2023-05-14T02:13:59;15.40;99.90
62573;DHT22;48626;51.678;5.806;2023-05-14T02:16:25;15.40;99.90
62573;DHT22;48626;51.678;5.806;2023-05-14T02:18:50;15.40;99.90
62573;DHT22;48626;51.678;5.806;2023-05-14T02:21:16;15.40;99.90
62573;DHT22;48626;51.678;5.806;2023-05-14T02:23:41;15.30;99.90
62573;DHT22;48626;51.678;5.806;2023-05-14T02:26:09;15.20;99.90
62573;DHT22;48626;51.678;5.806;2023-05-14T02:28:34;15.20;99.90
62573;DHT22;48626;51.678;5.806;2023-05-14T02:31:00;15.20;99.90
62573;DHT22;48626;51.678;5.806;2023-05-14T02:33:26;15.20;99.90
62573;DHT22;48626;51.678;5.806;2023-05-14T02:35:52;15.10;99.90
62573;DHT22;48626;51.678;5.806;2023-05-14T02:38:18;15.00;99.90
62573;DHT22;48626;51.678;5.806;2023-05-14T02:40:44;15.00;99.90
62573;DHT22;48626;51.678;5.806;2023-05-14T02:43:09;15.00;99.90
62573;DHT22;48626;51.678;5.806;2023-05-14T02:45:35;14.90;99.90
62573;DHT22;48626;51.678;5.806;2023-05-14T02:48:01;14.90;99.90
62573;DHT22;48626;51.678;5.806;2023-05-14T02:50:26;14.80;99.90
62573;DHT22;48626;51.678;5.806;2023-05-14T02:52:52;14.80;99.90
62573;DHT22;48626;51.678;5.806;2023-05-14T02:55:18;14.80;99.90
62573;DHT22;48626;51.678;5.806;2023-05-14T02:57:44;14.80;99.90
62573;DHT22;48626;51.678;5.806;2023-05-14T03:00:10;14.70;99.90
62573;DHT22;48626;51.678;5.806;2023-05-14T03:02:36;14.60;99.90
62573;DHT22;48626;51.678;5.806;2023-05-14T03:05:01;14.60;99.90
62573;DHT22;48626;51.678;5.806;2023-05-14T03:07:27;14.50;99.90
62573;DHT22;48626;51.678;5.806;2023-05-14T03:09:53;14.40;99.90
62573;DHT22;48626;51.678;5.806;2023-05-14T03:12:19;14.40;99.90
62573;DHT22;48626;51.678;5.806;2023-05-14T03:14:45;14.40;99.90
62573;DHT22;48626;51.678;5.806;2023-05-14T03:17:11;14.30;99.90
62573;DHT22;48626;51.678;5.806;2023-05-14T03:19:36;14.30;99.90
62573;DHT22;48626;51.678;5.806;2023-05-14T03:22:02;14.20;99.90
62573;DHT22;48626;51.678;5.806;2023-05-14T03:24:28;14.20;99.90
62573;DHT22;48626;51.678;5.806;2023-05-14T03:26:53;14.20;99.90
62573;DHT22;48626;51.678;5.806;2023-05-14T03:29:19;14.20;99.90
62573;DHT22;48626;51.678;5.806;2023-05-14T03:31:45;14.10;99.90
62573;DHT22;48626;51.678;5.806;2023-05-14T03:34:10;14.00;99.90
62573;DHT22;48626;51.678;5.806;2023-05-14T03:36:36;14.00;99.90
62573;DHT22;48626;51.678;5.806;2023-05-14T03:39:04;13.90;99.90
62573;DHT22;48626;51.678;5.806;2023-05-14T03:41:31;13.90;99.90
62573;DHT22;48626;51.678;5.806;2023-05-14T03:43:57;13.90;99.90
62573;DHT22;48626;51.678;5.806;2023-05-14T03:46:23;13.90;99.90
62573;DHT22;48626;51.678;5.806;2023-05-14T03:48:48;13.80;99.90
62573;DHT22;48626;51.678;5.806;2023-05-14T03:51:14;13.80;99.90
62573;DHT22;48626;51.678;5.806;2023-05-14T03:53:40;13.70;99.90
62573;DHT22;48626;51.678;5.806;2023-05-14T03:56:05;13.70;99.90
62573;DHT22;48626;51.678;5.806;2023-05-14T03:58:31;13.70;99.90
62573;DHT22;48626;51.678;5.806;2023-05-14T04:00:57;13.70;99.90
62573;DHT22;48626;51.678;5.806;2023-05-14T04:03:22;13.60;99.90
62573;DHT22;48626;51.678;5.806;2023-05-14T04:05:49;13.60;99.90
62573;DHT22;48626;51.678;5.806;2023-05-14T04:08:14;13.60;99.90
62573;DHT22;48626;51.678;5.806;2023-05-14T04:10:41;13.60;99.90
62573;DHT22;48626;51.678;5.806;2023-05-14T04:13:07;13.60;99.90
62573;DHT22;48626;51.678;5.806;2023-05-14T04:15:33;13.60;99.90
62573;DHT22;48626;51.678;5.806;2023-05-14T04:18:00;13.50;99.90
62573;DHT22;48626;51.678;5.806;2023-05-14T04:20:26;13.50;99.90
62573;DHT22;48626;51.678;5.806;2023-05-14T04:22:52;13.50;99.90
62573;DHT22;48626;51.678;5.806;2023-05-14T04:25:18;13.50;99.90
62573;DHT22;48626;51.678;5.806;2023-05-14T04:27:44;13.50;99.90
62573;DHT22;48626;51.678;5.806;2023-05-14T04:30:10;13.50;99.90
62573;DHT22;48626;51.678;5.806;2023-05-14T04:32:36;13.40;99.90
62573;DHT22;48626;51.678;5.806;2023-05-14T04:35:03;13.50;99.90
62573;DHT22;48626;51.678;5.806;2023-05-14T04:37:29;13.50;99.90
62573;DHT22;48626;51.678;5.806;2023-05-14T04:39:55;13.50;99.90
62573;DHT22;48626;51.678;5.806;2023-05-14T04:42:21;13.50;99.90
62573;DHT22;48626;51.678;5.806;2023-05-14T04:44:46;13.50;99.90
62573;DHT22;48626;51.678;5.806;2023-05-14T04:47:12;13.50;99.90
62573;DHT22;48626;51.678;5.806;2023-05-14T04:49:38;13.50;99.90
62573;DHT22;48626;51.678;5.806;2023-05-14T04:52:05;13.50;99.90
62573;DHT22;48626;51.678;5.806;2023-05-14T04:54:31;13.60;99.90
62573;DHT22;48626;51.678;5.806;2023-05-14T04:56:56;13.60;99.90
62573;DHT22;48626;51.678;5.806;2023-05-14T04:59:22;13.60;99.90
62573;DHT22;48626;51.678;5.806;2023-05-14T05:01:48;13.60;99.90
62573;DHT22;48626;51.678;5.806;2023-05-14T05:04:13;13.60;99.90
62573;DHT22;48626;51.678;5.806;2023-05-14T05:06:39;13.60;99.90
62573;DHT22;48626;51.678;5.806;2023-05-14T05:09:05;13.60;99.90
62573;DHT22;48626;51.678;5.806;2023-05-14T05:11:30;13.60;99.90
62573;DHT22;48626;51.678;5.806;2023-05-14T05:13:56;13.60;99.90
62573;DHT22;48626;51.678;5.806;2023-05-14T05:16:21;13.50;99.90
62573;DHT22;48626;51.678;5.806;2023-05-14T05:18:47;13.50;99.90
62573;DHT22;48626;51.678;5.806;2023-05-14T05:21:13;13.60;99.90
62573;DHT22;48626;51.678;5.806;2023-05-14T05:23:38;13.60;99.90
62573;DHT22;48626;51.678;5.806;2023-05-14T05:26:04;13.70;99.90
62573;DHT22;48626;51.678;5.806;2023-05-14T05:28:30;13.70;99.90
62573;DHT22;48626;51.678;5.806;2023-05-14T05:30:55;13.80;99.90
62573;DHT22;48626;51.678;5.806;2023-05-14T05:33:21;13.90;99.90
62573;DHT22;48626;51.678;5.806;2023-05-14T05:35:47;13.90;99.90
62573;DHT22;48626;51.678;5.806;2023-05-14T05:38:14;14.00;99.90
62573;DHT22;48626;51.678;5.806;2023-05-14T05:40:42;14.20;99.90
62573;DHT22;48626;51.678;5.806;2023-05-14T05:43:08;14.30;99.90
62573;DHT22;48626;51.678;5.806;2023-05-14T05:45:33;14.40;99.90
62573;DHT22;48626;51.678;5.806;2023-05-14T05:47:59;14.50;99.90
62573;DHT22;48626;51.678;5.806;2023-05-14T05:50:25;14.50;99.90
62573;DHT22;48626;51.678;5.806;2023-05-14T05:52:51;14.60;99.90
62573;DHT22;48626;51.678;5.806;2023-05-14T05:55:17;14.60;99.90
62573;DHT22;48626;51.678;5.806;2023-05-14T05:57:42;14.70;99.90
62573;DHT22;48626;51.678;5.806;2023-05-14T06:00:08;14.80;99.90
62573;DHT22;48626;51.678;5.806;2023-05-14T06:02:38;14.80;99.90
62573;DHT22;48626;51.678;5.806;2023-05-14T06:05:04;14.90;99.90
62573;DHT22;48626;51.678;5.806;2023-05-14T06:07:31;14.80;99.90
62573;DHT22;48626;51.678;5.806;2023-05-14T06:09:56;14.80;99.90
62573;DHT22;48626;51.678;5.806;2023-05-14T06:12:22;14.90;99.90
62573;DHT22;48626;51.678;5.806;2023-05-14T06:14:48;15.00;99.90
62573;DHT22;48626;51.678;5.806;2023-05-14T06:17:13;15.10;99.90
62573;DHT22;48626;51.678;5.806;2023-05-14T06:19:39;15.20;99.90
62573;DHT22;48626;51.678;5.806;2023-05-14T06:22:04;15.20;99.90
62573;DHT22;48626;51.678;5.806;2023-05-14T06:24:30;15.20;99.90
62573;DHT22;48626;51.678;5.806;2023-05-14T06:26:56;15.30;99.90
62573;DHT22;48626;51.678;5.806;2023-05-14T06:29:21;15.30;99.90
62573;DHT22;48626;51.678;5.806;2023-05-14T06:31:47;15.40;99.90
62573;DHT22;48626;51.678;5.806;2023-05-14T06:34:13;15.40;99.90
62573;DHT22;48626;51.678;5.806;2023-05-14T06:36:38;15.40;99.90
62573;DHT22;48626;51.678;5.806;2023-05-14T06:39:04;15.50;99.90
62573;DHT22;48626;51.678;5.806;2023-05-14T06:41:30;15.50;99.90
62573;DHT22;48626;51.678;5.806;2023-05-14T06:43:56;15.50;99.90
62573;DHT22;48626;51.678;5.806;2023-05-14T06:46:22;15.60;99.90
62573;DHT22;48626;51.678;5.806;2023-05-14T06:48:47;15.70;99.90
62573;DHT22;48626;51.678;5.806;2023-05-14T06:51:13;15.80;99.90
62573;DHT22;48626;51.678;5.806;2023-05-14T06:53:39;15.90;99.90
62573;DHT22;48626;51.678;5.806;2023-05-14T06:56:05;16.00;99.90
62573;DHT22;48626;51.678;5.806;2023-05-14T06:58:31;16.00;99.90
62573;DHT22;48626;51.678;5.806;2023-05-14T07:00:57;16.10;99.90
62573;DHT22;48626;51.678;5.806;2023-05-14T07:03:23;16.10;99.90
62573;DHT22;48626;51.678;5.806;2023-05-14T07:05:48;16.20;99.90
62573;DHT22;48626;51.678;5.806;2023-05-14T07:08:14;16.20;99.90
62573;DHT22;48626;51.678;5.806;2023-05-14T07:10:40;16.20;99.90
62573;DHT22;48626;51.678;5.806;2023-05-14T07:13:06;16.20;99.90
62573;DHT22;48626;51.678;5.806;2023-05-14T07:15:32;16.30;99.90
62573;DHT22;48626;51.678;5.806;2023-05-14T07:17:57;16.30;99.90
62573;DHT22;48626;51.678;5.806;2023-05-14T07:20:23;16.40;99.90
62573;DHT22;48626;51.678;5.806;2023-05-14T07:22:51;16.50;99.90
62573;DHT22;48626;51.678;5.806;2023-05-14T07:25:17;16.60;99.90
62573;DHT22;48626;51.678;5.806;2023-05-14T07:27:42;16.60;99.90
62573;DHT22;48626;51.678;5.806;2023-05-14T07:30:08;16.70;99.90
62573;DHT22;48626;51.678;5.806;2023-05-14T07:32:34;16.80;99.90
62573;DHT22;48626;51.678;5.806;2023-05-14T07:35:00;16.80;99.90
62573;DHT22;48626;51.678;5.806;2023-05-14T07:37:25;17.00;99.90
62573;DHT22;48626;51.678;5.806;2023-05-14T07:39:52;17.20;99.90
62573;DHT22;48626;51.678;5.806;2023-05-14T07:42:18;17.30;99.90
62573;DHT22;48626;51.678;5.806;2023-05-14T07:44:43;17.40;99.90
62573;DHT22;48626;51.678;5.806;2023-05-14T07:47:09;17.50;99.90
62573;DHT22;48626;51.678;5.806;2023-05-14T07:49:35;17.60;99.90
62573;DHT22;48626;51.678;5.806;2023-05-14T07:52:01;17.70;99.90
62573;DHT22;48626;51.678;5.806;2023-05-14T07:54:27;17.80;99.90
62573;DHT22;48626;51.678;5.806;2023-05-14T07:56:52;17.80;99.90
62573;DHT22;48626;51.678;5.806;2023-05-14T07:59:18;17.90;99.90
62573;DHT22;48626;51.678;5.806;2023-05-14T08:01:44;18.00;99.90
62573;DHT22;48626;51.678;5.806;2023-05-14T08:04:09;18.10;99.90
62573;DHT22;48626;51.678;5.806;2023-05-14T08:06:36;18.20;99.90
62573;DHT22;48626;51.678;5.806;2023-05-14T08:09:02;18.40;99.90
62573;DHT22;48626;51.678;5.806;2023-05-14T08:11:30;18.60;99.90
62573;DHT22;48626;51.678;5.806;2023-05-14T08:13:55;18.70;99.90
62573;DHT22;48626;51.678;5.806;2023-05-14T08:16:21;18.80;99.90
62573;DHT22;48626;51.678;5.806;2023-05-14T08:18:48;18.90;99.90
62573;DHT22;48626;51.678;5.806;2023-05-14T08:21:13;18.90;99.90
62573;DHT22;48626;51.678;5.806;2023-05-14T08:23:39;19.00;99.90
62573;DHT22;48626;51.678;5.806;2023-05-14T08:26:05;19.00;99.90
62573;DHT22;48626;51.678;5.806;2023-05-14T08:28:31;19.20;99.90
62573;DHT22;48626;51.678;5.806;2023-05-14T08:30:56;19.40;99.90
62573;DHT22;48626;51.678;5.806;2023-05-14T08:33:22;19.50;99.90
62573;DHT22;48626;51.678;5.806;2023-05-14T08:35:51;19.60;99.90
62573;DHT22;48626;51.678;5.806;2023-05-14T08:38:17;19.60;99.90
62573;DHT22;48626;51.678;5.806;2023-05-14T08:40:55;19.70;99.90
62573;DHT22;48626;51.678;5.806;2023-05-14T08:43:30;19.80;99.90
62573;DHT22;48626;51.678;5.806;2023-05-14T08:46:00;19.80;99.90
62573;DHT22;48626;51.678;5.806;2023-05-14T08:48:30;19.90;99.90
62573;DHT22;48626;51.678;5.806;2023-05-14T08:50:56;19.90;99.90
62573;DHT22;48626;51.678;5.806;2023-05-14T08:53:23;20.00;99.90
62573;DHT22;48626;51.678;5.806;2023-05-14T08:55:50;20.20;99.90
62573;DHT22;48626;51.678;5.806;2023-05-14T08:58:16;20.30;99.90
62573;DHT22;48626;51.678;5.806;2023-05-14T09:00:41;20.40;99.90
62573;DHT22;48626;51.678;5.806;2023-05-14T09:03:07;20.40;99.90
62573;DHT22;48626;51.678;5.806;2023-05-14T09:05:34;20.50;99.90
62573;DHT22;48626;51.678;5.806;2023-05-14T09:08:00;20.60;99.90
62573;DHT22;48626;51.678;5.806;2023-05-14T09:10:26;20.70;99.90
62573;DHT22;48626;51.678;5.806;2023-05-14T09:12:51;20.80;99.90
62573;DHT22;48626;51.678;5.806;2023-05-14T09:15:17;20.80;99.90
62573;DHT22;48626;51.678;5.806;2023-05-14T09:17:43;20.90;99.90
62573;DHT22;48626;51.678;5.806;2023-05-14T09:20:11;20.90;99.90
62573;DHT22;48626;51.678;5.806;2023-05-14T09:22:37;21.00;99.90
62573;DHT22;48626;51.678;5.806;2023-05-14T09:25:08;21.00;99.90
62573;DHT22;48626;51.678;5.806;2023-05-14T09:27:35;21.00;99.90
62573;DHT22;48626;51.678;5.806;2023-05-14T09:30:08;21.00;99.90
62573;DHT22;48626;51.678;5.806;2023-05-14T09:32:36;21.00;99.90
62573;DHT22;48626;51.678;5.806;2023-05-14T09:35:19;21.00;99.90
62573;DHT22;48626;51.678;5.806;2023-05-14T09:37:50;21.20;99.90
62573;DHT22;48626;51.678;5.806;2023-05-14T09:40:17;21.30;99.90
62573;DHT22;48626;51.678;5.806;2023-05-14T09:42:43;21.40;99.90
62573;DHT22;48626;51.678;5.806;2023-05-14T09:45:10;21.40;99.90
62573;DHT22;48626;51.678;5.806;2023-05-14T09:47:37;21.50;99.90
62573;DHT22;48626;51.678;5.806;2023-05-14T09:50:04;21.50;99.90
62573;DHT22;48626;51.678;5.806;2023-05-14T09:52:30;21.60;99.90
62573;DHT22;48626;51.678;5.806;2023-05-14T09:54:55;21.70;99.90
62573;DHT22;48626;51.678;5.806;2023-05-14T09:57:21;21.90;99.90
62573;DHT22;48626;51.678;5.806;2023-05-14T09:59:47;22.00;99.90
62573;DHT22;48626;51.678;5.806;2023-05-14T10:02:25;22.10;99.90
62573;DHT22;48626;51.678;5.806;2023-05-14T10:04:53;22.30;99.90
62573;DHT22;48626;51.678;5.806;2023-05-14T10:07:24;22.50;99.90
62573;DHT22;48626;51.678;5.806;2023-05-14T10:09:57;22.50;99.90
62573;DHT22;48626;51.678;5.806;2023-05-14T10:12:28;22.70;99.90
62573;DHT22;48626;51.678;5.806;2023-05-14T10:15:00;22.90;99.90
62573;DHT22;48626;51.678;5.806;2023-05-14T10:17:30;22.80;99.90
62573;DHT22;48626;51.678;5.806;2023-05-14T10:19:57;22.90;99.90
62573;DHT22;48626;51.678;5.806;2023-05-14T10:22:30;23.10;99.90
62573;DHT22;48626;51.678;5.806;2023-05-14T10:24:58;23.40;99.90
62573;DHT22;48626;51.678;5.806;2023-05-14T10:27:24;23.60;99.90
62573;DHT22;48626;51.678;5.806;2023-05-14T10:29:54;23.90;99.90
62573;DHT22;48626;51.678;5.806;2023-05-14T10:32:22;24.00;99.90
62573;DHT22;48626;51.678;5.806;2023-05-14T10:34:50;24.30;99.90
62573;DHT22;48626;51.678;5.806;2023-05-14T10:37:19;24.60;99.90
62573;DHT22;48626;51.678;5.806;2023-05-14T10:39:51;24.70;99.90
62573;DHT22;48626;51.678;5.806;2023-05-14T10:42:28;24.90;99.90
62573;DHT22;48626;51.678;5.806;2023-05-14T10:45:09;25.00;99.90
62573;DHT22;48626;51.678;5.806;2023-05-14T10:47:39;25.40;99.90
62573;DHT22;48626;51.678;5.806;2023-05-14T10:50:08;25.70;99.90
62573;DHT22;48626;51.678;5.806;2023-05-14T10:52:35;26.00;99.90
62573;DHT22;48626;51.678;5.806;2023-05-14T10:55:02;26.30;99.90
62573;DHT22;48626;51.678;5.806;2023-05-14T10:57:30;26.50;99.90
62573;DHT22;48626;51.678;5.806;2023-05-14T10:59:57;26.60;99.90
62573;DHT22;48626;51.678;5.806;2023-05-14T11:02:26;26.70;99.90
62573;DHT22;48626;51.678;5.806;2023-05-14T11:07:23;27.30;99.90
62573;DHT22;48626;51.678;5.806;2023-05-14T11:09:50;27.40;99.90
62573;DHT22;48626;51.678;5.806;2023-05-14T11:12:16;27.60;99.90
62573;DHT22;48626;51.678;5.806;2023-05-14T11:14:42;27.70;99.90
62573;DHT22;48626;51.678;5.806;2023-05-14T11:17:08;27.90;99.90
62573;DHT22;48626;51.678;5.806;2023-05-14T11:19:34;28.20;99.90
62573;DHT22;48626;51.678;5.806;2023-05-14T11:22:00;28.40;99.90
62573;DHT22;48626;51.678;5.806;2023-05-14T11:24:25;28.40;99.90
62573;DHT22;48626;51.678;5.806;2023-05-14T11:26:52;27.90;99.90
62573;DHT22;48626;51.678;5.806;2023-05-14T11:29:20;28.00;99.90
62573;DHT22;48626;51.678;5.806;2023-05-14T11:31:46;28.00;99.90
62573;DHT22;48626;51.678;5.806;2023-05-14T11:34:12;28.00;99.90
62573;DHT22;48626;51.678;5.806;2023-05-14T11:36:37;28.00;99.90
62573;DHT22;48626;51.678;5.806;2023-05-14T11:39:03;28.40;99.90
62573;DHT22;48626;51.678;5.806;2023-05-14T11:41:30;28.90;99.90
62573;DHT22;48626;51.678;5.806;2023-05-14T11:43:57;29.20;99.90
62573;DHT22;48626;51.678;5.806;2023-05-14T11:46:22;29.50;99.90
62573;DHT22;48626;51.678;5.806;2023-05-14T11:48:50;29.40;99.90
62573;DHT22;48626;51.678;5.806;2023-05-14T11:51:15;29.50;99.90
62573;DHT22;48626;51.678;5.806;2023-05-14T11:53:41;30.00;99.90
62573;DHT22;48626;51.678;5.806;2023-05-14T11:56:07;30.30;99.90
62573;DHT22;48626;51.678;5.806;2023-05-14T11:58:32;29.80;99.90
62573;DHT22;48626;51.678;5.806;2023-05-14T12:00:58;29.30;99.90
62573;DHT22;48626;51.678;5.806;2023-05-14T12:03:24;28.90;99.90
62573;DHT22;48626;51.678;5.806;2023-05-14T12:06:01;28.60;99.90
62573;DHT22;48626;51.678;5.806;2023-05-14T12:08:31;28.10;99.90
62573;DHT22;48626;51.678;5.806;2023-05-14T12:10:58;27.80;99.90
62573;DHT22;48626;51.678;5.806;2023-05-14T12:13:30;27.70;99.90
62573;DHT22;48626;51.678;5.806;2023-05-14T12:15:58;27.40;99.90
62573;DHT22;48626;51.678;5.806;2023-05-14T12:18:29;27.20;99.90
62573;DHT22;48626;51.678;5.806;2023-05-14T12:20:55;27.20;99.90
62573;DHT22;48626;51.678;5.806;2023-05-14T12:23:30;27.80;99.90
62573;DHT22;48626;51.678;5.806;2023-05-14T12:26:03;28.60;99.90
62573;DHT22;48626;51.678;5.806;2023-05-14T12:28:30;29.30;99.90
62573;DHT22;48626;51.678;5.806;2023-05-14T12:30:58;29.70;99.90
62573;DHT22;48626;51.678;5.806;2023-05-14T12:33:27;29.90;99.90
62573;DHT22;48626;51.678;5.806;2023-05-14T12:35:53;29.70;99.90
62573;DHT22;48626;51.678;5.806;2023-05-14T12:38:21;30.10;99.90
62573;DHT22;48626;51.678;5.806;2023-05-14T12:40:47;30.60;99.90
62573;DHT22;48626;51.678;5.806;2023-05-14T12:43:13;31.00;99.90
62573;DHT22;48626;51.678;5.806;2023-05-14T12:45:38;31.40;99.90
62573;DHT22;48626;51.678;5.806;2023-05-14T12:48:05;30.80;99.90
62573;DHT22;48626;51.678;5.806;2023-05-14T12:50:31;30.10;99.90
62573;DHT22;48626;51.678;5.806;2023-05-14T12:52:56;29.40;99.90
62573;DHT22;48626;51.678;5.806;2023-05-14T12:55:22;29.20;99.90
62573;DHT22;48626;51.678;5.806;2023-05-14T12:57:48;29.00;99.90
62573;DHT22;48626;51.678;5.806;2023-05-14T13:00:14;29.00;99.90
62573;DHT22;48626;51.678;5.806;2023-05-14T13:02:40;29.00;99.90
62573;DHT22;48626;51.678;5.806;2023-05-14T13:05:06;29.10;99.90
62573;DHT22;48626;51.678;5.806;2023-05-14T13:07:31;28.70;99.90
62573;DHT22;48626;51.678;5.806;2023-05-14T13:09:57;28.60;99.90
62573;DHT22;48626;51.678;5.806;2023-05-14T13:12:23;28.40;99.90
62573;DHT22;48626;51.678;5.806;2023-05-14T13:14:49;28.20;99.90
62573;DHT22;48626;51.678;5.806;2023-05-14T13:17:15;28.20;99.90
62573;DHT22;48626;51.678;5.806;2023-05-14T13:19:40;28.20;99.90
62573;DHT22;48626;51.678;5.806;2023-05-14T13:22:06;28.30;99.90
62573;DHT22;48626;51.678;5.806;2023-05-14T13:24:32;28.40;99.90
62573;DHT22;48626;51.678;5.806;2023-05-14T13:26:58;28.40;99.90
62573;DHT22;48626;51.678;5.806;2023-05-14T13:29:23;28.40;99.90
62573;DHT22;48626;51.678;5.806;2023-05-14T13:31:49;28.60;99.90
62573;DHT22;48626;51.678;5.806;2023-05-14T13:34:15;28.70;99.90
62573;DHT22;48626;51.678;5.806;2023-05-14T13:36:41;28.20;99.90
62573;DHT22;48626;51.678;5.806;2023-05-14T13:39:09;28.40;99.90
62573;DHT22;48626;51.678;5.806;2023-05-14T13:41:36;28.70;99.90
62573;DHT22;48626;51.678;5.806;2023-05-14T13:44:02;29.10;99.90
62573;DHT22;48626;51.678;5.806;2023-05-14T13:46:28;29.30;99.90
62573;DHT22;48626;51.678;5.806;2023-05-14T13:48:54;29.20;99.90
62573;DHT22;48626;51.678;5.806;2023-05-14T13:51:21;29.10;99.90
62573;DHT22;48626;51.678;5.806;2023-05-14T13:53:47;29.00;99.90
62573;DHT22;48626;51.678;5.806;2023-05-14T13:56:12;29.00;99.90
62573;DHT22;48626;51.678;5.806;2023-05-14T13:58:38;28.80;99.90
62573;DHT22;48626;51.678;5.806;2023-05-14T14:01:04;28.60;99.90
62573;DHT22;48626;51.678;5.806;2023-05-14T14:03:30;28.40;99.90
62573;DHT22;48626;51.678;5.806;2023-05-14T14:05:55;27.80;99.90
62573;DHT22;48626;51.678;5.806;2023-05-14T14:08:21;27.50;99.90
62573;DHT22;48626;51.678;5.806;2023-05-14T14:10:46;27.20;99.90
62573;DHT22;48626;51.678;5.806;2023-05-14T14:13:12;27.10;99.90
62573;DHT22;48626;51.678;5.806;2023-05-14T14:15:38;27.00;99.90
62573;DHT22;48626;51.678;5.806;2023-05-14T14:18:04;26.90;99.90
62573;DHT22;48626;51.678;5.806;2023-05-14T14:20:30;27.00;99.90
62573;DHT22;48626;51.678;5.806;2023-05-14T14:22:56;26.80;99.90
62573;DHT22;48626;51.678;5.806;2023-05-14T14:25:22;26.50;99.90
62573;DHT22;48626;51.678;5.806;2023-05-14T14:27:47;26.30;99.90
62573;DHT22;48626;51.678;5.806;2023-05-14T14:30:13;26.20;99.90
62573;DHT22;48626;51.678;5.806;2023-05-14T14:32:44;26.10;99.90
62573;DHT22;48626;51.678;5.806;2023-05-14T14:35:11;25.90;99.90
62573;DHT22;48626;51.678;5.806;2023-05-14T14:37:37;25.70;99.90
62573;DHT22;48626;51.678;5.806;2023-05-14T14:40:03;25.50;99.90
62573;DHT22;48626;51.678;5.806;2023-05-14T14:42:35;25.40;99.90
62573;DHT22;48626;51.678;5.806;2023-05-14T14:45:02;25.20;99.90
62573;DHT22;48626;51.678;5.806;2023-05-14T14:47:28;25.00;99.90
62573;DHT22;48626;51.678;5.806;2023-05-14T14:49:55;24.90;99.90
62573;DHT22;48626;51.678;5.806;2023-05-14T14:52:22;24.80;99.90
62573;DHT22;48626;51.678;5.806;2023-05-14T14:54:47;24.70;99.90
62573;DHT22;48626;51.678;5.806;2023-05-14T14:57:13;24.80;99.90
62573;DHT22;48626;51.678;5.806;2023-05-14T14:59:38;24.90;99.90
62573;DHT22;48626;51.678;5.806;2023-05-14T15:02:04;25.20;99.90
62573;DHT22;48626;51.678;5.806;2023-05-14T15:04:30;25.40;99.90
62573;DHT22;48626;51.678;5.806;2023-05-14T15:06:58;25.70;99.90
62573;DHT22;48626;51.678;5.806;2023-05-14T15:09:24;26.00;99.90
62573;DHT22;48626;51.678;5.806;2023-05-14T15:11:50;26.30;99.90
62573;DHT22;48626;51.678;5.806;2023-05-14T15:14:15;26.60;99.90
62573;DHT22;48626;51.678;5.806;2023-05-14T15:16:41;26.70;99.90
62573;DHT22;48626;51.678;5.806;2023-05-14T15:19:07;26.70;99.90
62573;DHT22;48626;51.678;5.806;2023-05-14T15:21:33;26.60;99.90
62573;DHT22;48626;51.678;5.806;2023-05-14T15:23:58;26.50;99.90
62573;DHT22;48626;51.678;5.806;2023-05-14T15:26:24;26.30;99.90
62573;DHT22;48626;51.678;5.806;2023-05-14T15:28:51;26.10;99.90
62573;DHT22;48626;51.678;5.806;2023-05-14T15:31:16;26.00;99.90
62573;DHT22;48626;51.678;5.806;2023-05-14T15:33:42;26.10;99.90